Time;durP1;ratioP1;P1;durP2;ratioP2;P2;SDS_P1;SDS_P2;PMS_P1;PMS_P2;Temp;Humidity;BMP_temperature;BMP_pressure;BME280_temperature;BME280_humidity;BME280_pressure;Samples;Min_cycle;Max_cycle;Signal;HPM_P1;HPM_P2
2023/04/29 00:01:57;;;;;;;;;5.75;4.25;;;;;;;;4970513;28;8820;-73
2023/04/29 00:04:23;;;;;;;;;5.00;5.00;;;;;;;;4970014;28;9137;-73
2023/04/29 00:06:49;;;;;;;;;5.00;5.00;;;;;;;;4969649;28;11534;-72
2023/04/29 00:09:14;;;;;;;;;7.00;5.50;;;;;;;;4972829;28;8809;-72
2023/04/29 00:11:39;;;;;;;;;4.75;4.00;;;;;;;;4989500;28;10014;-72
2023/04/29 00:14:05;;;;;;;;;3.50;3.50;;;;;;;;4971920;28;8805;-73
2023/04/29 00:16:30;;;;;;;;;4.50;4.50;;;;;;;;4989354;28;8851;-73
2023/04/29 00:18:56;;;;;;;;;4.00;4.00;;;;;;;;4989468;28;8842;-73
2023/04/29 00:21:21;;;;;;;;;5.00;5.00;;;;;;;;4989282;28;8777;-73
2023/04/29 00:23:46;;;;;;;;;5.00;4.00;;;;;;;;4989390;28;8817;-73
2023/04/29 00:26:12;;;;;;;;;5.50;4.25;;;;;;;;4989127;28;8963;-73
2023/04/29 00:28:37;;;;;;;;;4.25;3.75;;;;;;;;4988881;28;8785;-74
2023/04/29 00:31:02;;;;;;;;;5.50;5.00;;;;;;;;4989067;28;9021;-74
2023/04/29 00:33:28;;;;;;;;;4.50;4.50;;;;;;;;4989395;28;8851;-73
2023/04/29 00:35:53;;;;;;;;;4.75;4.25;;;;;;;;4988955;28;8804;-73
2023/04/29 00:38:20;;;;;;;;;5.75;5.75;;;;;;;;4987719;28;8801;-73
2023/04/29 00:40:45;;;;;;;;;4.00;4.00;;;;;;;;4989028;28;8820;-73
2023/04/29 00:43:10;;;;;;;;;5.00;4.00;;;;;;;;4988964;28;11113;-72
2023/04/29 00:45:36;;;;;;;;;4.00;4.00;;;;;;;;4988887;28;8841;-72
2023/04/29 00:48:01;;;;;;;;;6.00;4.75;;;;;;;;4971400;28;8939;-72
2023/04/29 00:50:26;;;;;;;;;5.50;4.25;;;;;;;;4988810;28;8801;-73
2023/04/29 00:52:52;;;;;;;;;6.25;6.00;;;;;;;;4988973;28;8811;-73
2023/04/29 00:55:18;;;;;;;;;5.25;4.75;;;;;;;;4988885;28;8816;-74
2023/04/29 00:57:46;;;;;;;;;6.75;5.00;;;;;;;;4988833;28;9013;-74
2023/04/29 01:00:15;;;;;;;;;5.25;4.25;;;;;;;;4988848;28;8797;-73
2023/04/29 01:02:40;;;;;;;;;6.00;5.00;;;;;;;;4971080;28;11431;-73
2023/04/29 01:05:06;;;;;;;;;4.00;4.00;;;;;;;;4988764;28;11378;-73
2023/04/29 01:07:35;;;;;;;;;5.00;5.00;;;;;;;;4988990;28;8816;-73
2023/04/29 01:10:08;;;;;;;;;5.25;3.75;;;;;;;;4992467;28;9082;-73
2023/04/29 01:12:36;;;;;;;;;4.75;4.75;;;;;;;;4992331;28;11505;-73
2023/04/29 01:15:09;;;;;;;;;6.00;5.00;;;;;;;;4992579;28;12170;-73
2023/04/29 01:17:43;;;;;;;;;4.25;4.25;;;;;;;;4992515;28;11405;-74
2023/04/29 01:20:09;;;;;;;;;6.00;5.00;;;;;;;;4992531;28;11428;-74
2023/04/29 01:22:36;;;;;;;;;5.25;5.25;;;;;;;;4992442;28;11405;-73
2023/04/29 01:25:01;;;;;;;;;5.00;5.00;;;;;;;;4992296;28;11164;-73
2023/04/29 06:38:31;;;;;;;;;7.50;6.25;;;;;;;;5104562;27;14218;-70
2023/04/29 06:40:59;;;;;;;;;11.00;7.50;;;;;;;;5107634;28;11429;-66
2023/04/29 06:43:31;;;;;;;;;6.00;4.00;;;;;;;;5103581;27;12056;-70
2023/04/29 06:45:58;;;;;;;;;9.25;5.00;;;;;;;;5107463;28;11367;-67
2023/04/29 06:48:24;;;;;;;;;7.50;4.50;;;;;;;;5107682;28;11414;-66
2023/04/29 06:50:49;;;;;;;;;5.50;5.50;;;;;;;;5107420;28;11499;-65
2023/04/29 06:53:14;;;;;;;;;5.50;4.25;;;;;;;;5106846;28;8800;-66
2023/04/29 06:55:40;;;;;;;;;7.50;5.75;;;;;;;;5107345;28;9527;-69
2023/04/29 06:58:05;;;;;;;;;5.75;5.75;;;;;;;;5104527;27;8871;-68
2023/04/29 07:00:31;;;;;;;;;6.50;5.25;;;;;;;;5064778;28;10018;-66
2023/04/29 07:02:56;;;;;;;;;7.00;6.00;;;;;;;;5066929;28;8813;-66
2023/04/29 07:05:22;;;;;;;;;7.25;5.75;;;;;;;;5046639;28;8804;-65
2023/04/29 07:07:47;;;;;;;;;6.25;5.75;;;;;;;;5046766;28;8930;-66
2023/04/29 07:10:12;;;;;;;;;6.50;5.00;;;;;;;;5046652;28;8811;-67
2023/04/29 07:12:37;;;;;;;;;6.50;6.25;;;;;;;;5046636;28;8826;-66
2023/04/29 07:15:03;;;;;;;;;5.50;5.50;;;;;;;;5043932;28;8839;-66
2023/04/29 07:17:30;;;;;;;;;6.00;6.00;;;;;;;;5046728;28;9621;-65
2023/04/29 07:19:55;;;;;;;;;6.00;6.00;;;;;;;;5046557;28;8784;-66
2023/04/29 07:22:21;;;;;;;;;2.00;2.00;;;;;;;;5046689;28;11171;-68
2023/04/29 07:24:46;;;;;;;;;3.75;3.00;;;;;;;;5044647;28;8803;-68
2023/04/29 07:27:12;;;;;;;;;4.50;4.50;;;;;;;;5046404;28;8834;-68
2023/04/29 07:29:37;;;;;;;;;3.50;3.50;;;;;;;;5046273;28;8812;-67
2023/04/29 07:32:02;;;;;;;;;5.00;5.00;;;;;;;;5046294;28;8831;-66
2023/04/29 07:34:28;;;;;;;;;6.50;6.00;;;;;;;;5044571;28;8907;-66
2023/04/29 07:36:53;;;;;;;;;7.75;6.00;;;;;;;;5046261;28;8827;-67
2023/04/29 07:39:18;;;;;;;;;9.00;7.00;;;;;;;;5044792;28;8835;-66
2023/04/29 07:41:44;;;;;;;;;8.50;6.00;;;;;;;;5046553;28;8788;-67
2023/04/29 07:44:10;;;;;;;;;11.25;6.75;;;;;;;;5050422;28;8809;-66
2023/04/29 07:46:35;;;;;;;;;6.00;6.00;;;;;;;;5086844;28;8862;-67
2023/04/29 07:49:01;;;;;;;;;5.75;5.50;;;;;;;;5021647;28;8835;-67
2023/04/29 07:51:27;;;;;;;;;6.00;6.00;;;;;;;;5030465;28;8803;-66
2023/04/29 07:53:53;;;;;;;;;4.50;4.00;;;;;;;;5028089;28;8834;-66
2023/04/29 07:56:18;;;;;;;;;6.25;6.00;;;;;;;;5031521;28;12784;-67
2023/04/29 07:58:44;;;;;;;;;4.00;4.00;;;;;;;;5031236;28;8859;-66
2023/04/29 08:01:10;;;;;;;;;6.50;6.00;;;;;;;;5031435;28;8844;-70
2023/04/29 08:03:36;;;;;;;;;6.50;5.00;;;;;;;;5029552;28;8847;-67
2023/04/29 08:06:02;;;;;;;;;6.00;4.25;;;;;;;;5032203;28;10955;-67
2023/04/29 08:08:27;;;;;;;;;5.50;5.50;;;;;;;;5031632;28;8839;-67
2023/04/29 08:10:53;;;;;;;;;6.00;5.00;;;;;;;;5031848;28;8844;-67
2023/04/29 08:13:18;;;;;;;;;6.50;3.00;;;;;;;;5030591;28;8916;-66
2023/04/29 08:15:43;;;;;;;;;3.00;3.00;;;;;;;;5031605;28;8905;-67
2023/04/29 08:18:09;;;;;;;;;4.50;3.00;;;;;;;;5032179;28;8835;-67
2023/04/29 08:20:34;;;;;;;;;4.75;4.75;;;;;;;;5032187;28;8889;-66
2023/04/29 08:22:59;;;;;;;;;6.00;5.00;;;;;;;;5025727;28;8808;-66
2023/04/29 08:25:25;;;;;;;;;6.25;5.50;;;;;;;;5029695;28;9088;-66
2023/04/29 08:27:51;;;;;;;;;8.75;5.50;;;;;;;;5030862;28;8920;-66
2023/04/29 08:30:16;;;;;;;;;7.75;7.25;;;;;;;;5032010;28;10844;-67
2023/04/29 08:32:42;;;;;;;;;9.00;6.50;;;;;;;;5032460;28;8796;-67
2023/04/29 08:35:07;;;;;;;;;6.50;6.50;;;;;;;;5030220;28;8819;-68
2023/04/29 08:37:32;;;;;;;;;9.00;7.25;;;;;;;;5031853;28;8954;-68
2023/04/29 08:39:58;;;;;;;;;6.50;4.50;;;;;;;;5031927;28;9559;-67
2023/04/29 08:42:36;;;;;;;;;6.75;6.75;;;;;;;;5030589;28;9567;-67
2023/04/29 08:45:02;;;;;;;;;7.50;7.50;;;;;;;;5030576;28;8863;-68
2023/04/29 08:47:31;;;;;;;;;9.75;8.00;;;;;;;;5031734;28;10929;-67
2023/04/29 08:50:01;;;;;;;;;9.50;7.50;;;;;;;;5041872;28;11859;-68
2023/04/29 08:52:26;;;;;;;;;7.00;7.00;;;;;;;;5051518;28;11102;-69
2023/04/29 08:54:52;;;;;;;;;6.25;5.25;;;;;;;;5045353;28;11089;-69
2023/04/29 08:57:20;;;;;;;;;6.75;6.75;;;;;;;;5051384;28;8843;-67
2023/04/29 08:59:46;;;;;;;;;9.25;5.50;;;;;;;;5050455;28;8858;-68
2023/04/29 09:02:15;;;;;;;;;6.50;6.00;;;;;;;;5050835;28;11535;-68
2023/04/29 09:04:46;;;;;;;;;7.00;7.00;;;;;;;;5047982;28;8829;-68
2023/04/29 09:07:12;;;;;;;;;5.75;5.50;;;;;;;;5049494;28;11092;-69
2023/04/29 09:09:38;;;;;;;;;12.00;8.00;;;;;;;;5045150;28;11108;-68
2023/04/29 09:12:07;;;;;;;;;6.00;6.00;;;;;;;;5031213;28;8921;-69
2023/04/29 09:14:33;;;;;;;;;7.75;6.75;;;;;;;;5038985;28;10929;-68
2023/04/29 09:16:58;;;;;;;;;7.25;7.00;;;;;;;;5051060;28;10811;-67
2023/04/29 09:19:31;;;;;;;;;8.00;7.00;;;;;;;;5050854;28;10935;-67
2023/04/29 09:21:56;;;;;;;;;11.00;11.00;;;;;;;;5051211;28;8894;-68
2023/04/29 09:24:26;;;;;;;;;9.25;7.75;;;;;;;;5042347;28;11110;-68
2023/04/29 09:26:51;;;;;;;;;8.00;8.00;;;;;;;;5027811;28;8812;-68
2023/04/29 09:29:17;;;;;;;;;6.25;6.00;;;;;;;;5030510;28;11259;-68
2023/04/29 09:31:43;;;;;;;;;9.25;7.50;;;;;;;;5029904;28;8804;-68
2023/04/29 09:34:08;;;;;;;;;9.00;7.00;;;;;;;;5021964;28;8822;-67
2023/04/29 09:36:38;;;;;;;;;6.00;5.50;;;;;;;;5026260;28;8871;-68
2023/04/29 09:39:10;;;;;;;;;6.50;6.00;;;;;;;;5026284;28;8943;-69
2023/04/29 09:41:39;;;;;;;;;8.50;8.00;;;;;;;;5021228;28;10743;-68
2023/04/29 09:44:08;;;;;;;;;11.50;8.25;;;;;;;;5027679;28;10791;-68
2023/04/29 09:46:35;;;;;;;;;10.00;8.00;;;;;;;;5029292;28;10924;-68
2023/04/29 09:49:01;;;;;;;;;7.25;7.00;;;;;;;;5029155;28;10736;-68
2023/04/29 09:51:26;;;;;;;;;7.25;6.75;;;;;;;;5026856;28;10729;-69
2023/04/29 09:53:52;;;;;;;;;6.50;5.00;;;;;;;;5027971;28;10654;-72
2023/04/29 09:56:17;;;;;;;;;9.00;7.00;;;;;;;;5029004;28;8792;-68
2023/04/29 09:58:42;;;;;;;;;8.75;7.00;;;;;;;;5027997;28;8965;-68
2023/04/29 10:01:08;;;;;;;;;6.00;6.00;;;;;;;;5029306;28;8808;-71
2023/04/29 10:03:37;;;;;;;;;11.00;7.00;;;;;;;;5029477;28;8812;-75
2023/04/29 10:06:08;;;;;;;;;6.00;6.00;;;;;;;;5029934;28;8881;-70
2023/04/29 10:08:34;;;;;;;;;8.25;7.00;;;;;;;;5030105;28;11333;-71
2023/04/29 10:11:01;;;;;;;;;7.50;7.50;;;;;;;;5029685;28;10726;-71
2023/04/29 10:13:27;;;;;;;;;7.75;7.00;;;;;;;;5028215;28;8811;-67
2023/04/29 10:16:12;;;;;;;;;7.50;6.75;;;;;;;;5027658;28;11487;-67
2023/04/29 10:18:40;;;;;;;;;8.00;8.00;;;;;;;;5018088;28;10789;-68
2023/04/29 10:21:06;;;;;;;;;9.25;6.50;;;;;;;;5030003;28;11653;-68
2023/04/29 10:23:32;;;;;;;;;7.75;6.50;;;;;;;;5028991;28;11105;-67
2023/04/29 10:25:59;;;;;;;;;9.50;7.25;;;;;;;;5029419;28;10928;-67
2023/04/29 10:28:26;;;;;;;;;8.75;7.00;;;;;;;;5030143;28;8800;-68
2023/04/29 10:30:53;;;;;;;;;8.00;8.00;;;;;;;;5029902;28;10641;-67
2023/04/29 10:33:20;;;;;;;;;9.00;7.00;;;;;;;;5030226;28;10791;-68
2023/04/29 10:35:47;;;;;;;;;12.00;11.50;;;;;;;;5029802;28;10797;-68
2023/04/29 10:38:25;;;;;;;;;9.00;8.25;;;;;;;;5029594;28;10969;-68
2023/04/29 10:40:51;;;;;;;;;10.75;8.25;;;;;;;;5029795;28;10881;-68
2023/04/29 10:43:24;;;;;;;;;9.75;9.00;;;;;;;;5029997;28;11568;-68
2023/04/29 10:46:10;;;;;;;;;14.50;12.00;;;;;;;;5028353;28;11265;-68
2023/04/29 10:48:36;;;;;;;;;12.00;11.00;;;;;;;;5029729;28;11141;-68
2023/04/29 10:51:01;;;;;;;;;10.00;8.75;;;;;;;;5028600;28;11545;-67
2023/04/29 10:53:27;;;;;;;;;16.25;15.00;;;;;;;;5029875;28;8821;-67
2023/04/29 10:55:53;;;;;;;;;11.00;9.50;;;;;;;;5029852;28;8816;-67
2023/04/29 10:58:34;;;;;;;;;13.00;9.00;;;;;;;;5029924;28;8835;-68
2023/04/29 11:00:59;;;;;;;;;11.25;10.75;;;;;;;;5029127;28;12001;-68
2023/04/29 11:03:43;;;;;;;;;13.50;11.25;;;;;;;;5029236;28;11729;-67
2023/04/29 11:06:09;;;;;;;;;11.00;8.75;;;;;;;;5029566;28;8807;-68
2023/04/29 11:08:42;;;;;;;;;8.25;7.25;;;;;;;;5029824;28;11086;-68
2023/04/29 11:11:07;;;;;;;;;13.25;11.75;;;;;;;;5011586;28;8815;-68
2023/04/29 11:13:37;;;;;;;;;13.00;11.75;;;;;;;;5010040;28;11218;-68
2023/04/29 11:16:03;;;;;;;;;9.00;9.00;;;;;;;;5009812;28;8803;-67
2023/04/29 11:18:28;;;;;;;;;11.00;11.00;;;;;;;;5009774;28;10988;-67
2023/04/29 11:21:05;;;;;;;;;12.75;12.00;;;;;;;;5009840;28;10973;-67
2023/04/29 11:23:41;;;;;;;;;9.00;9.00;;;;;;;;5010847;28;8802;-70
2023/04/29 11:26:06;;;;;;;;;7.00;6.75;;;;;;;;5013583;28;10765;-74
2023/04/29 11:28:32;;;;;;;;;10.75;8.00;;;;;;;;5019986;28;10897;-69
2023/04/29 11:30:58;;;;;;;;;8.25;8.00;;;;;;;;5031608;28;8820;-70
2023/04/29 11:33:24;;;;;;;;;9.50;8.50;;;;;;;;5033281;28;8848;-74
2023/04/29 11:35:49;;;;;;;;;8.75;7.25;;;;;;;;5031661;28;9597;-78
2023/04/29 11:38:15;;;;;;;;;8.00;8.00;;;;;;;;5031291;28;10837;-75
2023/04/29 11:40:41;;;;;;;;;8.50;3.50;;;;;;;;5029740;28;8885;-72
2023/04/29 11:43:06;;;;;;;;;14.00;11.75;;;;;;;;5024122;28;8838;-69
2023/04/29 11:45:34;;;;;;;;;9.25;9.25;;;;;;;;5016908;28;8920;-69
2023/04/29 11:48:00;;;;;;;;;57.00;47.00;;;;;;;;5032650;28;8824;-69
2023/04/29 11:50:26;;;;;;;;;12.75;11.00;;;;;;;;5032383;28;11590;-67
2023/04/29 11:52:51;;;;;;;;;8.75;8.00;;;;;;;;5032529;28;11167;-69
2023/04/29 11:55:17;;;;;;;;;9.00;9.00;;;;;;;;5032610;28;8807;-68
2023/04/29 11:57:43;;;;;;;;;10.00;10.00;;;;;;;;5031134;28;8839;-70
2023/04/29 12:00:12;;;;;;;;;9.50;8.25;;;;;;;;5032203;28;8812;-72
2023/04/29 12:02:37;;;;;;;;;8.75;7.75;;;;;;;;5032331;28;8827;-73
2023/04/29 12:05:11;;;;;;;;;9.00;8.00;;;;;;;;5032525;28;10613;-74
2023/04/29 12:07:37;;;;;;;;;7.50;7.50;;;;;;;;5032508;28;8792;-75
2023/04/29 12:10:02;;;;;;;;;8.75;7.00;;;;;;;;5023031;28;10577;-71
2023/04/29 12:12:28;;;;;;;;;11.75;7.75;;;;;;;;5012532;28;8829;-67
2023/04/29 12:14:54;;;;;;;;;6.25;6.25;;;;;;;;5012559;28;8841;-69
2023/04/29 12:17:20;;;;;;;;;10.00;10.00;;;;;;;;5012520;28;8965;-69
2023/04/29 12:19:45;;;;;;;;;13.50;13.50;;;;;;;;5019955;28;9531;-68
2023/04/29 12:22:11;;;;;;;;;9.75;8.25;;;;;;;;5025045;28;10705;-68
2023/04/29 12:24:37;;;;;;;;;6.75;6.75;;;;;;;;5012436;28;8822;-72
2023/04/29 12:27:02;;;;;;;;;10.50;7.75;;;;;;;;5027454;28;8924;-73
2023/04/29 12:29:27;;;;;;;;;7.50;7.50;;;;;;;;5013550;28;8845;-70
2023/04/29 12:31:54;;;;;;;;;7.50;7.50;;;;;;;;5026546;28;9658;-69
2023/04/29 12:34:29;;;;;;;;;9.50;8.50;;;;;;;;5029388;28;9657;-69
2023/04/29 12:36:57;;;;;;;;;8.75;8.00;;;;;;;;5027922;28;10614;-68
2023/04/29 12:39:22;;;;;;;;;8.75;7.00;;;;;;;;5030610;28;10542;-68
2023/04/29 12:41:47;;;;;;;;;8.50;8.50;;;;;;;;5030072;28;10499;-69
2023/04/29 12:44:14;;;;;;;;;11.00;9.00;;;;;;;;5030421;28;8816;-69
2023/04/29 12:46:40;;;;;;;;;10.50;9.25;;;;;;;;5030439;28;8808;-69
2023/04/29 12:49:06;;;;;;;;;18.25;12.00;;;;;;;;5029944;28;10762;-69
2023/04/29 12:51:32;;;;;;;;;13.00;12.00;;;;;;;;5030607;28;8838;-69
2023/04/29 12:53:59;;;;;;;;;10.75;10.75;;;;;;;;5030540;28;11047;-68
2023/04/29 12:56:25;;;;;;;;;12.50;11.50;;;;;;;;5030844;28;10879;-69
2023/04/29 12:58:50;;;;;;;;;18.75;14.00;;;;;;;;5031257;28;10677;-71
2023/04/29 13:01:18;;;;;;;;;17.00;12.00;;;;;;;;5031185;28;8917;-69
2023/04/29 13:03:43;;;;;;;;;22.25;19.75;;;;;;;;5011614;28;8841;-73
2023/04/29 13:06:08;;;;;;;;;15.25;15.25;;;;;;;;5011385;28;11089;-69
2023/04/29 13:08:34;;;;;;;;;19.25;15.00;;;;;;;;5011678;28;8822;-70
2023/04/29 13:10:59;;;;;;;;;18.25;18.00;;;;;;;;5028144;28;9550;-68
2023/04/29 13:13:24;;;;;;;;;13.00;13.00;;;;;;;;5031363;28;8800;-68
2023/04/29 13:15:50;;;;;;;;;9.75;9.00;;;;;;;;5029739;28;8815;-68
2023/04/29 13:18:15;;;;;;;;;18.25;15.00;;;;;;;;5030753;28;8990;-69
2023/04/29 13:20:40;;;;;;;;;12.75;12.75;;;;;;;;5031074;28;8839;-67
2023/04/29 13:23:06;;;;;;;;;12.50;10.25;;;;;;;;5025144;28;8826;-67
2023/04/29 13:25:31;;;;;;;;;16.00;13.50;;;;;;;;5020081;28;8814;-70
2023/04/29 13:27:56;;;;;;;;;14.50;13.25;;;;;;;;5011295;28;8805;-75
2023/04/29 13:30:22;;;;;;;;;20.25;19.00;;;;;;;;5009548;28;8823;-72
2023/04/29 13:32:47;;;;;;;;;21.00;18.00;;;;;;;;5010466;28;8928;-70
2023/04/29 13:35:15;;;;;;;;;20.25;16.50;;;;;;;;5026231;28;8907;-71
2023/04/29 13:37:41;;;;;;;;;17.75;14.50;;;;;;;;5042904;28;8842;-74
2023/04/29 13:40:06;;;;;;;;;18.50;18.00;;;;;;;;5020442;28;10979;-77
2023/04/29 13:42:32;;;;;;;;;17.75;15.00;;;;;;;;5045825;28;8842;-72
2023/04/29 13:44:57;;;;;;;;;18.00;14.25;;;;;;;;5028178;28;8856;-72
2023/04/29 13:47:23;;;;;;;;;17.50;14.75;;;;;;;;5028093;28;8812;-72
2023/04/29 13:49:48;;;;;;;;;18.25;14.50;;;;;;;;5028502;28;8938;-72
2023/04/29 13:52:13;;;;;;;;;15.00;14.25;;;;;;;;5029715;28;8835;-71
2023/04/29 13:54:39;;;;;;;;;16.25;13.00;;;;;;;;5029070;28;8831;-72
2023/04/29 13:57:04;;;;;;;;;18.25;15.75;;;;;;;;5028442;28;8843;-72
2023/04/29 13:59:33;;;;;;;;;16.25;13.75;;;;;;;;5028199;28;8823;-72
2023/04/29 14:01:58;;;;;;;;;14.25;13.50;;;;;;;;5028273;28;8838;-72
2023/04/29 14:04:27;;;;;;;;;12.00;12.00;;;;;;;;5028350;28;10992;-73
2023/04/29 14:06:53;;;;;;;;;11.25;9.75;;;;;;;;5028275;28;8860;-71
2023/04/29 14:09:21;;;;;;;;;14.25;14.25;;;;;;;;5025707;28;11710;-72
2023/04/29 14:11:47;;;;;;;;;12.50;12.50;;;;;;;;5010423;28;10926;-72
2023/04/29 14:14:12;;;;;;;;;16.50;14.00;;;;;;;;5010715;28;10851;-72
2023/04/29 14:16:38;;;;;;;;;19.00;11.25;;;;;;;;5010463;28;8837;-72
2023/04/29 14:19:03;;;;;;;;;13.75;13.00;;;;;;;;5025890;28;8836;-71
2023/04/29 14:21:28;;;;;;;;;14.25;12.00;;;;;;;;5025658;28;8825;-72
2023/04/29 14:23:54;;;;;;;;;13.75;12.50;;;;;;;;5010646;28;9622;-72
2023/04/29 14:26:19;;;;;;;;;13.50;12.75;;;;;;;;5010599;28;8941;-72
2023/04/29 14:28:45;;;;;;;;;12.00;10.00;;;;;;;;5010457;28;8782;-72
2023/04/29 14:31:12;;;;;;;;;17.75;14.75;;;;;;;;5010166;28;8799;-71
2023/04/29 14:33:37;;;;;;;;;14.75;14.00;;;;;;;;5010711;28;8798;-71
2023/04/29 14:36:06;;;;;;;;;11.50;11.50;;;;;;;;5010018;28;10948;-72
2023/04/29 14:38:31;;;;;;;;;14.00;13.25;;;;;;;;5025655;28;9574;-71
2023/04/29 14:40:56;;;;;;;;;16.50;13.75;;;;;;;;5025278;28;10968;-72
2023/04/29 14:43:22;;;;;;;;;28.50;28.00;;;;;;;;5025558;28;8836;-72
2023/04/29 14:45:47;;;;;;;;;13.25;11.00;;;;;;;;5009864;28;8826;-72
2023/04/29 14:48:12;;;;;;;;;11.50;9.00;;;;;;;;5010080;28;8892;-72
2023/04/29 14:50:37;;;;;;;;;16.50;13.75;;;;;;;;5010160;28;8893;-72
2023/04/29 14:53:03;;;;;;;;;13.75;13.00;;;;;;;;5010123;28;8919;-72
2023/04/29 14:55:28;;;;;;;;;15.00;13.50;;;;;;;;5010202;28;8830;-72
2023/04/29 14:57:57;;;;;;;;;9.25;9.25;;;;;;;;5010091;28;8866;-71
2023/04/29 15:00:22;;;;;;;;;12.75;12.00;;;;;;;;5028692;28;8826;-71
2023/04/29 15:02:49;;;;;;;;;12.75;12.75;;;;;;;;5014024;28;11774;-72
2023/04/29 15:05:14;;;;;;;;;8.25;8.25;;;;;;;;5014157;28;8818;-72
2023/04/29 15:07:40;;;;;;;;;13.25;10.00;;;;;;;;5029167;28;10712;-72
2023/04/29 15:10:08;;;;;;;;;11.00;11.00;;;;;;;;5013889;28;8830;-72
2023/04/29 15:12:33;;;;;;;;;9.00;9.00;;;;;;;;5013950;28;8791;-72
2023/04/29 15:14:58;;;;;;;;;12.00;10.00;;;;;;;;5013525;28;11351;-72
2023/04/29 15:17:24;;;;;;;;;9.75;9.75;;;;;;;;5013553;28;8968;-71
2023/04/29 15:19:49;;;;;;;;;12.25;10.00;;;;;;;;5013704;28;8818;-73
2023/04/29 15:22:14;;;;;;;;;12.25;10.50;;;;;;;;5013757;28;8806;-72
2023/04/29 15:24:40;;;;;;;;;13.50;12.75;;;;;;;;5013595;28;8823;-71
2023/04/29 15:27:05;;;;;;;;;11.75;10.25;;;;;;;;5013635;28;9596;-72
2023/04/29 15:29:33;;;;;;;;;11.00;9.00;;;;;;;;5013169;28;8801;-73
2023/04/29 15:31:58;;;;;;;;;10.00;10.00;;;;;;;;5028931;28;8889;-71
2023/04/29 15:34:26;;;;;;;;;8.00;8.00;;;;;;;;5028870;28;10967;-72
2023/04/29 15:36:52;;;;;;;;;15.00;13.00;;;;;;;;5013111;28;8857;-72
2023/04/29 15:39:19;;;;;;;;;10.50;9.00;;;;;;;;5013276;28;10730;-72
2023/04/29 15:41:44;;;;;;;;;9.00;9.00;;;;;;;;5013381;28;8806;-72
2023/04/29 15:44:13;;;;;;;;;9.50;8.75;;;;;;;;5028283;28;10540;-72
2023/04/29 15:46:41;;;;;;;;;13.25;12.25;;;;;;;;5028609;28;8826;-72
2023/04/29 15:49:06;;;;;;;;;9.50;9.50;;;;;;;;5013138;28;10910;-71
2023/04/29 15:51:35;;;;;;;;;13.00;8.25;;;;;;;;5011870;28;10920;-71
2023/04/29 15:54:00;;;;;;;;;11.50;9.75;;;;;;;;5013100;28;9529;-72
2023/04/29 15:56:26;;;;;;;;;12.50;9.00;;;;;;;;5012960;28;10628;-71
2023/04/29 15:58:51;;;;;;;;;9.25;8.75;;;;;;;;5012842;28;8802;-72
2023/04/29 16:01:17;;;;;;;;;11.00;9.00;;;;;;;;5012852;28;8904;-72
2023/04/29 16:03:42;;;;;;;;;13.00;11.50;;;;;;;;5013114;28;8909;-72
2023/04/29 16:06:08;;;;;;;;;9.50;9.50;;;;;;;;5012848;28;8802;-72
2023/04/29 16:08:33;;;;;;;;;10.00;9.75;;;;;;;;5012738;28;8814;-73
2023/04/29 16:10:58;;;;;;;;;9.50;8.75;;;;;;;;5012164;28;11422;-71
2023/04/29 16:13:24;;;;;;;;;9.25;9.00;;;;;;;;5012489;28;8798;-71
2023/04/29 16:15:49;;;;;;;;;9.25;9.25;;;;;;;;5027656;28;8900;-72
2023/04/29 16:18:16;;;;;;;;;9.00;8.75;;;;;;;;5012894;28;8826;-69
2023/04/29 16:20:41;;;;;;;;;11.50;8.00;;;;;;;;5032467;28;8784;-70
2023/04/29 16:23:07;;;;;;;;;12.75;11.00;;;;;;;;5032445;28;10494;-68
2023/04/29 16:25:32;;;;;;;;;12.50;10.75;;;;;;;;5032323;28;8791;-69
2023/04/29 16:27:58;;;;;;;;;12.50;12.00;;;;;;;;5028321;28;8858;-70
2023/04/29 16:30:23;;;;;;;;;11.25;11.25;;;;;;;;5031915;28;8839;-70
2023/04/29 16:32:48;;;;;;;;;11.50;11.50;;;;;;;;5032251;28;8830;-70
2023/04/29 16:35:14;;;;;;;;;9.50;8.75;;;;;;;;5032036;28;9500;-73
2023/04/29 16:37:39;;;;;;;;;9.50;9.50;;;;;;;;5031694;28;8962;-72
2023/04/29 16:40:05;;;;;;;;;8.00;8.00;;;;;;;;5030517;28;8803;-72
2023/04/29 16:42:30;;;;;;;;;9.50;9.50;;;;;;;;5031050;28;8875;-73
2023/04/29 16:44:55;;;;;;;;;8.25;8.00;;;;;;;;5031017;28;8899;-72
2023/04/29 16:47:22;;;;;;;;;7.75;7.75;;;;;;;;5031460;28;8911;-72
2023/04/29 16:49:50;;;;;;;;;8.75;8.75;;;;;;;;5030330;28;8885;-71
2023/04/29 16:52:16;;;;;;;;;11.00;7.75;;;;;;;;5039789;28;10434;-72
2023/04/29 16:54:41;;;;;;;;;10.25;9.25;;;;;;;;5049407;28;10354;-73
2023/04/29 16:57:07;;;;;;;;;9.25;8.00;;;;;;;;5043283;28;10628;-73
2023/04/29 16:59:32;;;;;;;;;9.00;9.00;;;;;;;;5029939;28;8814;-74
2023/04/29 17:01:58;;;;;;;;;10.25;8.25;;;;;;;;5026470;28;8881;-67
2023/04/29 17:04:23;;;;;;;;;11.00;8.00;;;;;;;;5023801;28;10127;-67
2023/04/29 17:06:49;;;;;;;;;9.25;9.25;;;;;;;;5030592;28;11601;-70
2023/04/29 17:09:14;;;;;;;;;9.00;9.00;;;;;;;;5031229;28;8958;-68
2023/04/29 17:11:40;;;;;;;;;9.25;8.75;;;;;;;;5040410;28;8884;-76
2023/04/29 17:14:05;;;;;;;;;8.25;8.00;;;;;;;;5051087;28;8797;-73
2023/04/29 17:16:31;;;;;;;;;10.50;9.00;;;;;;;;5050902;28;9570;-73
2023/04/29 17:18:59;;;;;;;;;8.00;7.50;;;;;;;;5050799;28;9594;-72
2023/04/29 17:21:24;;;;;;;;;8.50;8.50;;;;;;;;5040910;28;10617;-71
2023/04/29 17:23:51;;;;;;;;;8.00;7.00;;;;;;;;5049919;28;10425;-69
2023/04/29 17:26:17;;;;;;;;;8.00;7.00;;;;;;;;5051018;28;8816;-72
2023/04/29 17:28:42;;;;;;;;;10.00;8.75;;;;;;;;5050912;28;10587;-71
2023/04/29 17:31:07;;;;;;;;;7.75;7.75;;;;;;;;5031814;28;9608;-71
2023/04/29 17:33:33;;;;;;;;;12.00;9.50;;;;;;;;5030988;28;8834;-70
2023/04/29 17:36:00;;;;;;;;;7.75;7.75;;;;;;;;5030873;28;8831;-70
2023/04/29 17:38:25;;;;;;;;;11.50;11.50;;;;;;;;5030633;28;8840;-70
2023/04/29 17:40:51;;;;;;;;;10.00;10.00;;;;;;;;5028710;28;10965;-71
2023/04/29 17:43:18;;;;;;;;;13.00;12.25;;;;;;;;5030927;28;8897;-71
2023/04/29 17:45:43;;;;;;;;;12.00;12.00;;;;;;;;5030954;28;9617;-70
2023/04/29 17:48:09;;;;;;;;;12.75;12.00;;;;;;;;5030299;28;10955;-72
2023/04/29 17:50:36;;;;;;;;;12.75;12.75;;;;;;;;5028471;28;9566;-77
2023/04/29 17:53:01;;;;;;;;;10.00;10.00;;;;;;;;5030597;28;9597;-74
2023/04/29 17:55:26;;;;;;;;;12.50;12.00;;;;;;;;5030490;28;10969;-73
2023/04/29 17:57:53;;;;;;;;;24.00;22.00;;;;;;;;5030443;28;8816;-70
2023/04/29 18:00:19;;;;;;;;;13.00;12.00;;;;;;;;5032154;28;8824;-70
2023/04/29 18:02:44;;;;;;;;;17.75;17.75;;;;;;;;5027734;28;11279;-68
2023/04/29 18:05:09;;;;;;;;;18.00;18.00;;;;;;;;5029953;28;9113;-70
2023/04/29 18:07:35;;;;;;;;;18.00;16.50;;;;;;;;5028629;28;8913;-68
2023/04/29 18:10:00;;;;;;;;;20.00;14.50;;;;;;;;5021210;28;8925;-69
2023/04/29 18:12:25;;;;;;;;;13.50;13.00;;;;;;;;5026927;28;9610;-66
2023/04/29 18:14:51;;;;;;;;;13.75;13.75;;;;;;;;5028721;28;8934;-69
2023/04/29 18:17:16;;;;;;;;;17.25;13.25;;;;;;;;5030000;28;8920;-68
2023/04/29 18:19:41;;;;;;;;;17.75;15.50;;;;;;;;5030115;28;8851;-67
2023/04/29 18:22:08;;;;;;;;;17.00;14.50;;;;;;;;5030134;28;8808;-69
2023/04/29 18:24:33;;;;;;;;;20.25;17.25;;;;;;;;5028636;28;8816;-67
2023/04/29 18:26:58;;;;;;;;;22.25;18.00;;;;;;;;5029976;28;11276;-68
2023/04/29 18:29:24;;;;;;;;;16.75;16.75;;;;;;;;5030296;28;8862;-71
2023/04/29 18:31:49;;;;;;;;;15.25;12.75;;;;;;;;5029693;28;8901;-67
2023/04/29 18:34:15;;;;;;;;;9.00;9.00;;;;;;;;5029798;28;8834;-72
2023/04/29 18:36:50;;;;;;;;;18.75;14.75;;;;;;;;5027518;28;9006;-69
2023/04/29 18:39:16;;;;;;;;;16.25;14.75;;;;;;;;5024017;28;11734;-70
2023/04/29 18:41:42;;;;;;;;;18.75;18.00;;;;;;;;5003094;28;11205;-67
2023/04/29 18:44:07;;;;;;;;;14.00;14.00;;;;;;;;5010177;28;11194;-68
2023/04/29 18:46:32;;;;;;;;;18.25;15.50;;;;;;;;5008518;28;8829;-74
2023/04/29 18:48:58;;;;;;;;;22.25;17.00;;;;;;;;5009943;28;8827;-69
2023/04/29 18:51:23;;;;;;;;;17.75;16.50;;;;;;;;5034332;28;8847;-67
2023/04/29 18:53:48;;;;;;;;;19.25;15.50;;;;;;;;5028780;28;8812;-70
2023/04/29 18:56:16;;;;;;;;;24.50;20.25;;;;;;;;5028385;28;8816;-68
2023/04/29 18:58:41;;;;;;;;;21.00;19.75;;;;;;;;5026391;28;8938;-68
2023/04/29 19:01:09;;;;;;;;;18.50;18.00;;;;;;;;5028278;28;11622;-70
2023/04/29 19:03:35;;;;;;;;;19.00;18.50;;;;;;;;5029954;28;9566;-68
2023/04/29 19:06:05;;;;;;;;;18.00;17.25;;;;;;;;5029737;28;11169;-67
2023/04/29 19:08:31;;;;;;;;;14.00;13.75;;;;;;;;5029907;28;8823;-72
2023/04/29 19:10:56;;;;;;;;;16.00;14.75;;;;;;;;5028074;28;11111;-70
2023/04/29 19:13:25;;;;;;;;;15.75;14.00;;;;;;;;5030019;28;8950;-72
2023/04/29 19:15:52;;;;;;;;;19.75;19.00;;;;;;;;5029815;28;8796;-73
2023/04/29 19:18:18;;;;;;;;;22.75;19.00;;;;;;;;5029652;28;11506;-72
2023/04/29 19:21:00;;;;;;;;;22.50;19.25;;;;;;;;5027912;28;11611;-72
2023/04/29 19:23:25;;;;;;;;;23.50;22.50;;;;;;;;5029616;28;11370;-74
2023/04/29 19:25:50;;;;;;;;;24.25;21.75;;;;;;;;5029149;28;11361;-73
2023/04/29 19:28:16;;;;;;;;;26.75;20.00;;;;;;;;5028468;28;8804;-71
2023/04/29 19:30:41;;;;;;;;;22.00;18.75;;;;;;;;5025900;28;8906;-74
2023/04/29 19:33:07;;;;;;;;;20.75;19.00;;;;;;;;5024759;28;8848;-73
2023/04/29 19:35:32;;;;;;;;;20.75;20.75;;;;;;;;5028001;28;8835;-73
2023/04/29 19:37:57;;;;;;;;;22.75;22.75;;;;;;;;5027672;28;8824;-72
2023/04/29 19:40:22;;;;;;;;;24.00;23.75;;;;;;;;5026051;28;8780;-74
2023/04/29 19:42:48;;;;;;;;;29.00;26.00;;;;;;;;5025028;28;8833;-77
2023/04/29 19:45:13;;;;;;;;;25.50;25.00;;;;;;;;5029809;28;8958;-78
2023/04/29 19:47:38;;;;;;;;;29.25;27.50;;;;;;;;5030453;28;9573;-76